Time;durP1;ratioP1;P1;durP2;ratioP2;P2;SDS_P1;SDS_P2;PMS_P1;PMS_P2;Temp;Humidity;BMP_temperature;BMP_pressure;BME280_temperature;BME280_humidity;BME280_pressure;Samples;Min_cycle;Max_cycle;Signal;HPM_P1;HPM_P2
2021/07/13 00:01:17;;;;;;;3.17;2.00;;;22.80;75.40;;;;;;5016185;28;20362;-71
2021/07/13 00:03:53;;;;;;;2.78;2.20;;;22.90;75.90;;;;;;5016019;28;20121;-70
2021/07/13 00:06:24;;;;;;;3.55;2.10;;;22.80;75.50;;;;;;5016008;28;20026;-71
2021/07/13 00:08:59;;;;;;;2.47;1.95;;;22.80;76.00;;;;;;5016007;28;20083;-70
2021/07/13 00:11:34;;;;;;;3.25;2.00;;;22.70;75.30;;;;;;5015874;28;20338;-71
2021/07/13 00:14:06;;;;;;;4.22;2.15;;;22.70;74.70;;;;;;4997257;28;20030;-71
2021/07/13 00:16:44;;;;;;;5.90;1.95;;;22.60;74.20;;;;;;5015557;28;20091;-71
2021/07/13 00:19:11;;;;;;;3.97;2.03;;;22.50;74.60;;;;;;4983180;28;20034;-71
2021/07/13 00:21:46;;;;;;;3.38;2.75;;;22.50;75.20;;;;;;5015740;28;20087;-70
2021/07/13 00:24:18;;;;;;;4.22;2.17;;;22.40;75.90;;;;;;5015722;28;20169;-70
2021/07/13 00:26:53;;;;;;;3.70;2.45;;;22.30;76.00;;;;;;5015650;28;20030;-70
2021/07/13 00:29:23;;;;;;;3.22;2.10;;;22.20;76.50;;;;;;5024364;28;20425;-70
2021/07/13 00:32:03;;;;;;;4.10;2.50;;;22.20;76.90;;;;;;5060305;28;20036;-70
2021/07/13 00:34:34;;;;;;;3.47;2.35;;;22.20;77.50;;;;;;5061305;28;20029;-70
2021/07/13 00:37:06;;;;;;;2.95;2.50;;;22.20;77.70;;;;;;5074924;28;20129;-70
2021/07/13 00:39:57;;;;;;;3.45;2.25;;;22.30;77.70;;;;;;5097159;28;20443;-71
2021/07/13 00:42:28;;;;;;;4.95;2.58;;;22.40;77.80;;;;;;5097474;28;20085;-70
2021/07/13 00:45:04;;;;;;;5.45;2.60;;;22.40;78.10;;;;;;5097613;28;20020;-70
2021/07/13 00:47:36;;;;;;;7.55;2.97;;;22.50;78.90;;;;;;5097031;28;20115;-70
2021/07/13 00:50:09;;;;;;;5.80;2.40;;;22.60;79.30;;;;;;5096762;28;20039;-70
2021/07/13 00:52:36;;;;;;;5.35;2.58;;;22.60;79.30;;;;;;5096817;28;20458;-70
2021/07/13 00:55:03;;;;;;;5.72;2.30;;;22.40;80.10;;;;;;5096804;28;20026;-70
2021/07/13 00:57:36;;;;;;;7.18;2.40;;;22.30;80.90;;;;;;5096897;28;20221;-70
2021/07/13 01:00:08;;;;;;;3.33;2.60;;;22.10;81.70;;;;;;5097234;28;20031;-70
2021/07/13 01:02:37;;;;;;;4.35;2.60;;;22.00;81.80;;;;;;5096822;28;20051;-70
2021/07/13 01:05:16;;;;;;;5.45;2.50;;;22.00;82.30;;;;;;5078978;28;20031;-70
2021/07/13 01:08:06;;;;;;;2.88;2.50;;;22.00;82.20;;;;;;5096731;28;20470;-70
2021/07/13 01:10:59;;;;;;;6.15;2.63;;;21.90;82.80;;;;;;5096802;28;20367;-71
2021/07/13 01:14:02;;;;;;;4.15;2.30;;;21.70;83.30;;;;;;5096833;28;20111;-70
2021/07/13 01:16:39;;;;;;;5.57;2.55;;;21.60;83.60;;;;;;5096952;28;20375;-70
2021/07/13 01:19:26;;;;;;;3.78;2.47;;;21.50;83.50;;;;;;5096696;28;20028;-70
2021/07/13 01:21:55;;;;;;;3.10;2.50;;;21.50;82.90;;;;;;5096857;28;20036;-70
2021/07/13 01:24:36;;;;;;;6.93;2.40;;;21.60;82.60;;;;;;5096904;28;20079;-70
2021/07/13 01:27:20;;;;;;;3.20;2.50;;;21.80;81.90;;;;;;5096425;28;20032;-70
2021/07/13 01:29:47;;;;;;;3.10;2.58;;;22.00;81.00;;;;;;5096575;28;20036;-70
2021/07/13 01:32:17;;;;;;;6.10;2.40;;;22.10;79.90;;;;;;5096508;28;20033;-70
2021/07/13 01:34:48;;;;;;;5.32;2.38;;;22.10;79.70;;;;;;5096868;28;20020;-70
2021/07/13 01:37:16;;;;;;;3.25;2.13;;;22.30;78.40;;;;;;5096322;28;20044;-70
2021/07/13 01:39:42;;;;;;;6.13;2.60;;;22.30;78.10;;;;;;5096461;28;20020;-71
2021/07/13 01:42:10;;;;;;;4.25;3.13;;;22.30;76.90;;;;;;5097420;28;20485;-70
2021/07/13 01:44:37;;;;;;;7.15;3.10;;;22.30;77.00;;;;;;5100958;28;20082;-70
2021/07/13 01:47:05;;;;;;;3.65;2.20;;;22.20;76.40;;;;;;5100743;28;20055;-70
2021/07/13 01:49:31;;;;;;;2.75;2.05;;;22.10;76.30;;;;;;5100698;28;20081;-70
2021/07/13 01:51:59;;;;;;;7.03;1.98;;;22.10;75.70;;;;;;5100295;28;20431;-70
2021/07/13 01:54:26;;;;;;;5.10;1.95;;;22.00;75.60;;;;;;5100636;28;20071;-70
2021/07/13 01:56:55;;;;;;;2.10;1.80;;;21.90;75.60;;;;;;5100566;28;20047;-70
2021/07/13 01:59:22;;;;;;;2.60;2.13;;;21.90;75.80;;;;;;5100534;28;20019;-70
2021/07/13 02:01:49;;;;;;;3.15;2.00;;;21.80;75.70;;;;;;5100104;28;20035;-70
2021/07/13 02:04:16;;;;;;;3.97;2.20;;;21.80;75.90;;;;;;5100380;28;20111;-70
2021/07/13 02:06:43;;;;;;;2.95;2.10;;;21.80;76.60;;;;;;5100063;28;20031;-70
2021/07/13 02:09:12;;;;;;;4.35;2.25;;;21.90;77.30;;;;;;5100032;28;20028;-70
2021/07/13 02:11:42;;;;;;;5.53;1.83;;;21.90;75.80;;;;;;5099886;28;20431;-70
2021/07/13 02:14:09;;;;;;;2.83;2.05;;;22.10;75.40;;;;;;5100355;28;20047;-70
2021/07/13 02:16:35;;;;;;;2.20;1.75;;;22.10;75.40;;;;;;5099897;28;20024;-70
2021/07/13 02:19:01;;;;;;;4.07;1.88;;;22.20;75.00;;;;;;5100108;28;20030;-70
2021/07/13 02:21:27;;;;;;;3.13;1.90;;;22.30;74.90;;;;;;5099827;28;20040;-71
2021/07/13 02:23:53;;;;;;;2.80;2.03;;;22.20;74.20;;;;;;5099618;28;20028;-70
2021/07/13 02:26:23;;;;;;;2.50;1.70;;;22.10;75.00;;;;;;5100002;28;20028;-70
2021/07/13 02:28:58;;;;;;;2.30;1.70;;;22.00;75.50;;;;;;5099620;28;20020;-70
2021/07/13 02:31:33;;;;;;;3.05;1.98;;;21.80;75.90;;;;;;5099874;28;20028;-70
2021/07/13 02:34:10;;;;;;;4.53;1.80;;;21.70;76.50;;;;;;5099810;28;20028;-70
2021/07/13 02:36:41;;;;;;;5.15;2.35;;;21.60;76.70;;;;;;5099444;28;20024;-70
2021/07/13 02:39:08;;;;;;;3.05;1.90;;;21.80;76.10;;;;;;5099482;28;20040;-70
2021/07/13 02:41:36;;;;;;;2.15;1.65;;;21.90;75.50;;;;;;5099385;28;20020;-70
2021/07/13 02:44:03;;;;;;;5.20;2.22;;;22.00;74.60;;;;;;5099259;28;20032;-70
2021/07/13 02:46:31;;;;;;;6.93;2.22;;;22.20;74.50;;;;;;5099476;28;20024;-70
2021/07/13 02:48:59;;;;;;;4.60;1.90;;;22.30;73.30;;;;;;5099596;28;20324;-70
2021/07/13 02:51:28;;;;;;;3.72;2.10;;;22.40;72.90;;;;;;5099188;28;20035;-70
2021/07/13 02:53:55;;;;;;;3.22;2.00;;;22.50;72.30;;;;;;5097968;28;20024;-70
2021/07/13 02:56:24;;;;;;;6.47;2.20;;;22.70;72.40;;;;;;5099075;28;20412;-70
2021/07/13 02:58:54;;;;;;;2.95;2.22;;;22.70;71.40;;;;;;5099072;28;20043;-70
2021/07/13 03:01:20;;;;;;;4.88;2.00;;;22.80;71.80;;;;;;5099368;28;20407;-70
2021/07/13 03:03:48;;;;;;;2.78;1.88;;;22.80;72.60;;;;;;5099298;28;20332;-70
2021/07/13 03:06:15;;;;;;;2.90;1.90;;;22.70;71.80;;;;;;5098973;28;20404;-70
2021/07/13 03:08:41;;;;;;;3.83;1.65;;;22.70;72.20;;;;;;5098915;28;20036;-70
2021/07/13 03:11:07;;;;;;;2.42;1.85;;;22.60;70.80;;;;;;5099074;28;20031;-70
2021/07/13 03:13:33;;;;;;;2.55;1.58;;;22.40;71.70;;;;;;5098991;28;20055;-70
2021/07/13 03:15:59;;;;;;;2.92;1.65;;;22.20;71.50;;;;;;5098749;28;20297;-70
2021/07/13 03:18:25;;;;;;;3.88;1.70;;;22.00;72.60;;;;;;5098744;28;20028;-70
2021/07/13 03:20:54;;;;;;;2.40;1.50;;;21.90;73.70;;;;;;5099046;28;20099;-70
2021/07/13 03:23:21;;;;;;;2.25;1.60;;;21.80;73.80;;;;;;5098610;28;20407;-70
2021/07/13 03:25:49;;;;;;;2.20;1.55;;;21.70;74.40;;;;;;5098890;28;20024;-70
2021/07/13 03:28:16;;;;;;;2.97;1.70;;;21.80;72.40;;;;;;5098846;28;20358;-70
2021/07/13 03:30:44;;;;;;;6.40;1.77;;;21.70;72.40;;;;;;5098819;28;20024;-70
2021/07/13 03:33:10;;;;;;;3.22;1.63;;;21.70;72.20;;;;;;5098695;28;20107;-70
2021/07/13 03:35:37;;;;;;;3.38;1.40;;;21.70;72.40;;;;;;5098684;28;20081;-70
2021/07/13 03:38:03;;;;;;;2.88;1.60;;;21.60;73.60;;;;;;5098190;28;20059;-70
2021/07/13 03:40:29;;;;;;;2.40;1.40;;;21.60;73.70;;;;;;5098275;28;20424;-70
2021/07/13 03:42:56;;;;;;;2.15;1.50;;;21.50;73.90;;;;;;5098531;28;20036;-70
2021/07/13 03:45:25;;;;;;;3.53;1.40;;;21.60;74.20;;;;;;5098179;28;20024;-70
2021/07/13 03:47:52;;;;;;;2.70;1.50;;;21.50;74.60;;;;;;5098485;28;20032;-70
2021/07/13 03:50:24;;;;;;;2.88;1.60;;;21.50;75.70;;;;;;5097940;28;20024;-70
2021/07/13 03:52:50;;;;;;;2.28;1.80;;;21.50;75.70;;;;;;5098263;28;20032;-70
2021/07/13 03:55:17;;;;;;;2.35;1.70;;;21.60;75.40;;;;;;5098016;28;20435;-70
2021/07/13 03:57:43;;;;;;;2.60;1.58;;;21.60;75.20;;;;;;5098296;28;20073;-70
2021/07/13 04:00:16;;;;;;;7.40;1.90;;;21.60;74.80;;;;;;5098239;28;20020;-70
2021/07/13 04:02:42;;;;;;;3.55;2.10;;;21.60;75.90;;;;;;5098112;28;20101;-70
2021/07/13 04:05:12;;;;;;;2.33;2.10;;;21.60;75.70;;;;;;5097497;28;20426;-70
2021/07/13 04:07:39;;;;;;;2.53;2.05;;;21.60;75.60;;;;;;5098064;28;20340;-70
2021/07/13 04:10:09;;;;;;;3.08;2.00;;;21.70;76.40;;;;;;5098055;28;20048;-70
2021/07/13 04:12:35;;;;;;;2.42;2.00;;;21.70;75.50;;;;;;5097873;28;20165;-70
2021/07/13 04:15:01;;;;;;;4.75;2.03;;;21.80;76.80;;;;;;5097672;28;20436;-70
2021/07/13 04:17:27;;;;;;;5.85;2.22;;;21.80;77.20;;;;;;5097594;28;20028;-70
2021/07/13 04:19:52;;;;;;;4.05;2.38;;;21.80;76.70;;;;;;5097924;28;20016;-70
2021/07/13 04:22:19;;;;;;;3.88;2.20;;;21.80;77.50;;;;;;5097824;28;20353;-70
2021/07/13 04:24:45;;;;;;;2.60;2.22;;;21.80;78.40;;;;;;5097551;28;20122;-70
2021/07/13 04:27:11;;;;;;;2.45;2.25;;;21.80;78.80;;;;;;5097376;28;20024;-70
2021/07/13 04:29:36;;;;;;;3.83;2.30;;;21.90;78.60;;;;;;5097662;28;20032;-71
2021/07/13 04:32:02;;;;;;;4.00;2.33;;;21.90;78.40;;;;;;5097287;28;20030;-70
2021/07/13 04:34:29;;;;;;;5.47;2.28;;;22.10;78.70;;;;;;5097444;28;20020;-70
2021/07/13 04:36:54;;;;;;;3.13;2.40;;;22.20;78.20;;;;;;5097071;28;20028;-70
2021/07/13 04:39:20;;;;;;;3.00;2.40;;;22.30;78.10;;;;;;5097565;28;20028;-71
2021/07/13 04:41:46;;;;;;;3.65;2.40;;;22.40;74.80;;;;;;5097529;28;20035;-70
2021/07/13 04:44:11;;;;;;;2.63;2.22;;;22.60;77.50;;;;;;5097035;28;20063;-70
2021/07/13 04:46:37;;;;;;;3.67;1.95;;;22.70;76.00;;;;;;5097347;28;20051;-70
2021/07/13 04:49:02;;;;;;;3.30;2.30;;;22.70;74.50;;;;;;5097381;28;20051;-70
2021/07/13 04:51:28;;;;;;;3.00;1.95;;;22.80;76.00;;;;;;5097156;28;20028;-70
2021/07/13 04:53:54;;;;;;;3.88;2.10;;;22.90;75.70;;;;;;5097278;28;20035;-70
2021/07/13 04:56:20;;;;;;;5.43;1.77;;;22.90;75.60;;;;;;5097274;28;20312;-70
2021/07/13 04:58:45;;;;;;;2.13;1.90;;;22.90;75.30;;;;;;5097255;28;20031;-70
2021/07/13 05:01:11;;;;;;;2.72;2.10;;;22.90;75.10;;;;;;5096797;28;20024;-70
2021/07/13 05:03:37;;;;;;;3.28;1.90;;;22.80;74.60;;;;;;5096850;28;20028;-70
2021/07/13 05:06:02;;;;;;;8.15;1.90;;;22.80;74.10;;;;;;5097149;28;20024;-70
2021/07/13 05:08:28;;;;;;;2.85;1.90;;;22.80;73.00;;;;;;5096985;28;20051;-70
2021/07/13 05:10:54;;;;;;;2.17;1.60;;;22.80;74.50;;;;;;5097100;28;20035;-70
2021/07/13 05:13:20;;;;;;;2.45;1.92;;;22.80;74.60;;;;;;5096750;28;20040;-70
2021/07/13 05:15:46;;;;;;;2.38;1.70;;;22.80;75.40;;;;;;5096732;28;20491;-70
2021/07/13 05:18:13;;;;;;;1.70;1.38;;;22.80;75.90;;;;;;5096357;28;20020;-70
2021/07/13 05:20:46;;;;;;;4.18;1.70;;;22.80;74.80;;;;;;5096635;28;20408;-70
2021/07/13 05:23:12;;;;;;;3.55;1.80;;;22.80;75.20;;;;;;5097023;28;20028;-70
2021/07/13 05:25:38;;;;;;;3.05;1.83;;;22.90;75.60;;;;;;5096640;28;20036;-70
2021/07/13 05:28:10;;;;;;;4.15;2.20;;;23.00;73.60;;;;;;5096986;28;20024;-70
2021/07/13 05:30:39;;;;;;;5.65;2.08;;;23.10;72.10;;;;;;5096649;28;20047;-70
2021/07/13 05:33:05;;;;;;;2.33;2.13;;;23.30;73.40;;;;;;5096486;28;20451;-70
2021/07/13 05:35:31;;;;;;;2.63;2.10;;;23.50;73.80;;;;;;5096813;28;20020;-71
2021/07/13 05:37:57;;;;;;;3.38;2.22;;;23.60;73.30;;;;;;5096395;28;20107;-70
2021/07/13 05:40:22;;;;;;;4.43;2.50;;;23.70;72.60;;;;;;5096499;28;20020;-70
2021/07/13 05:42:48;;;;;;;2.17;1.98;;;23.80;73.90;;;;;;5096655;28;20081;-70
2021/07/13 05:45:14;;;;;;;3.72;2.38;;;24.00;72.90;;;;;;5096750;28;20447;-70
2021/07/13 05:47:40;;;;;;;2.97;2.35;;;24.00;72.00;;;;;;5096710;28;20020;-70
2021/07/13 05:50:08;;;;;;;3.03;2.45;;;24.10;71.50;;;;;;5096428;28;20407;-70
2021/07/13 05:52:34;;;;;;;3.85;2.20;;;24.10;72.10;;;;;;5096697;28;20077;-71
2021/07/13 05:55:00;;;;;;;4.03;2.70;;;24.00;71.30;;;;;;5096331;28;20470;-70
2021/07/13 05:57:26;;;;;;;3.33;1.73;;;24.00;70.50;;;;;;5096587;28;20078;-70
2021/07/13 05:59:53;;;;;;;3.30;2.03;;;24.00;70.50;;;;;;5096329;28;20024;-70
2021/07/13 06:02:18;;;;;;;9.10;2.28;;;24.10;70.60;;;;;;5096626;28;20035;-70
2021/07/13 06:04:44;;;;;;;6.32;2.92;;;24.20;70.60;;;;;;5096344;28;20028;-70
2021/07/13 06:07:10;;;;;;;2.72;1.90;;;24.40;69.80;;;;;;5096218;28;20024;-70
2021/07/13 06:09:36;;;;;;;2.33;1.85;;;24.50;70.80;;;;;;5096229;28;20031;-70
2021/07/13 06:12:02;;;;;;;2.50;2.00;;;24.70;68.50;;;;;;5096139;28;20028;-70
2021/07/13 06:14:27;;;;;;;1.48;1.33;;;24.70;67.80;;;;;;5096613;28;20032;-70
2021/07/13 06:16:53;;;;;;;4.78;2.00;;;24.90;69.90;;;;;;5096446;28;20024;-71
2021/07/13 06:19:19;;;;;;;2.75;1.80;;;25.00;72.50;;;;;;5096423;28;20035;-71
2021/07/13 06:21:45;;;;;;;4.18;1.83;;;25.20;71.10;;;;;;5096432;28;20036;-71
2021/07/13 06:24:12;;;;;;;4.72;2.03;;;25.40;70.40;;;;;;5096065;28;20102;-71
2021/07/13 06:26:38;;;;;;;2.70;1.85;;;25.50;72.90;;;;;;5096064;28;20043;-70
2021/07/13 06:29:04;;;;;;;3.85;1.90;;;25.70;70.90;;;;;;5098606;28;20331;-70
2021/07/13 06:31:30;;;;;;;3.58;2.10;;;25.90;67.80;;;;;;5099613;28;20031;-71
2021/07/13 06:33:55;;;;;;;3.05;1.70;;;26.20;66.40;;;;;;5099999;28;20021;-71
2021/07/13 06:36:21;;;;;;;4.15;1.75;;;26.50;66.20;;;;;;5099808;28;20024;-71
2021/07/13 06:38:47;;;;;;;2.25;1.42;;;27.00;65.70;;;;;;5099380;28;20047;-71
2021/07/13 06:41:13;;;;;;;1.77;1.42;;;27.50;61.40;;;;;;5099768;28;20025;-71
2021/07/13 06:43:38;;;;;;;1.77;1.50;;;27.80;61.30;;;;;;5099535;28;20423;-71
2021/07/13 06:46:04;;;;;;;5.95;1.70;;;28.00;61.00;;;;;;5099378;28;20024;-71
2021/07/13 06:48:30;;;;;;;4.28;1.80;;;28.20;56.90;;;;;;5099650;28;20039;-71
2021/07/13 06:50:56;;;;;;;2.17;1.33;;;28.50;58.30;;;;;;5099364;28;20020;-71
2021/07/13 06:53:22;;;;;;;2.72;1.48;;;28.70;58.90;;;;;;5099129;28;20369;-72
2021/07/13 06:55:48;;;;;;;3.50;1.60;;;28.90;58.20;;;;;;5099185;28;20028;-71
2021/07/13 06:58:13;;;;;;;5.35;1.38;;;29.10;58.50;;;;;;5099468;28;20039;-71
2021/07/13 07:00:39;;;;;;;4.07;1.50;;;29.40;57.80;;;;;;5099431;28;20119;-71
2021/07/13 07:03:06;;;;;;;2.78;1.25;;;29.50;58.30;;;;;;5099135;28;20030;-71
2021/07/13 07:05:32;;;;;;;3.03;1.38;;;29.70;57.00;;;;;;5099021;28;20435;-71
2021/07/13 07:07:58;;;;;;;2.90;1.50;;;29.90;58.30;;;;;;5099028;28;20028;-71
2021/07/13 07:10:24;;;;;;;1.88;1.30;;;30.00;57.10;;;;;;5099244;28;20040;-71
2021/07/13 07:12:51;;;;;;;7.10;1.70;;;30.10;57.20;;;;;;5098807;28;20482;-71
2021/07/13 07:15:18;;;;;;;4.47;1.35;;;30.20;55.80;;;;;;5098792;28;20032;-71
2021/07/13 07:17:54;;;;;;;2.30;1.50;;;30.40;55.60;;;;;;5099108;28;20016;-71
2021/07/13 07:20:28;;;;;;;1.92;1.42;;;30.70;57.30;;;;;;5098722;28;20404;-71
2021/07/13 07:22:55;;;;;;;2.45;1.38;;;31.00;54.40;;;;;;5098787;28;20441;-72
2021/07/13 07:25:21;;;;;;;4.75;1.75;;;31.00;57.50;;;;;;5098583;28;20031;-71
2021/07/13 07:27:47;;;;;;;4.18;1.40;;;31.00;56.30;;;;;;5098904;28;20028;-72
2021/07/13 07:30:16;;;;;;;2.42;1.40;;;31.10;56.70;;;;;;5098525;28;20024;-72
2021/07/13 07:32:44;;;;;;;9.23;1.50;;;30.90;56.40;;;;;;5098445;28;20179;-72
2021/07/13 07:35:10;;;;;;;2.72;1.70;;;31.10;58.40;;;;;;5098665;28;20364;-72
2021/07/13 07:37:37;;;;;;;3.58;1.45;;;31.10;55.70;;;;;;5098447;28;20060;-72
2021/07/13 07:40:05;;;;;;;3.65;1.70;;;31.00;57.60;;;;;;5097717;28;20454;-72
2021/07/13 07:42:32;;;;;;;4.50;1.50;;;31.00;57.90;;;;;;5098200;28;20094;-72
2021/07/13 07:44:57;;;;;;;3.80;1.50;;;31.00;57.30;;;;;;5098773;28;20036;-72
2021/07/13 07:47:23;;;;;;;4.03;1.58;;;31.00;56.80;;;;;;5097784;28;20077;-72
2021/07/13 07:49:49;;;;;;;2.38;1.45;;;30.80;58.10;;;;;;5098164;28;20077;-72
2021/07/13 07:52:16;;;;;;;5.25;1.50;;;30.60;56.40;;;;;;5098334;28;20047;-72
2021/07/13 07:54:42;;;;;;;3.40;1.55;;;30.50;56.80;;;;;;5098040;28;20103;-72
2021/07/13 07:57:08;;;;;;;3.80;1.52;;;30.30;57.20;;;;;;5098228;28;20100;-72
2021/07/13 07:59:33;;;;;;;4.35;1.65;;;30.20;57.30;;;;;;5098278;28;20323;-72
2021/07/13 08:01:59;;;;;;;3.05;1.40;;;30.50;60.20;;;;;;5098096;28;20031;-72
2021/07/13 08:04:25;;;;;;;2.25;1.42;;;30.70;57.90;;;;;;5098191;28;20397;-72
2021/07/13 08:06:50;;;;;;;2.80;1.40;;;30.70;57.10;;;;;;5097821;28;20115;-72
2021/07/13 08:09:16;;;;;;;3.13;1.92;;;31.00;58.00;;;;;;5097975;28;20039;-72
2021/07/13 08:11:42;;;;;;;5.18;1.60;;;31.40;56.50;;;;;;5097969;28;20028;-72
2021/07/13 08:14:07;;;;;;;2.65;1.40;;;31.20;54.60;;;;;;5098077;28;20043;-72
2021/07/13 08:16:39;;;;;;;3.58;1.40;;;31.30;57.20;;;;;;5097954;28;20032;-72
2021/07/13 08:19:06;;;;;;;2.75;1.30;;;31.40;57.50;;;;;;5097953;28;20031;-72
2021/07/13 08:21:33;;;;;;;3.08;1.95;;;31.40;59.20;;;;;;5097752;28;20024;-72
2021/07/13 08:23:59;;;;;;;6.38;1.80;;;30.90;57.50;;;;;;5097490;28;20111;-72
2021/07/13 08:26:25;;;;;;;4.20;1.83;;;30.70;58.00;;;;;;5097761;28;20102;-72
2021/07/13 08:28:51;;;;;;;2.80;1.77;;;30.30;58.10;;;;;;5097244;28;20028;-72
2021/07/13 08:31:17;;;;;;;3.95;2.13;;;30.40;58.00;;;;;;5097645;28;20028;-72
2021/07/13 08:33:43;;;;;;;3.20;1.60;;;30.30;59.70;;;;;;5097651;28;20032;-72
2021/07/13 08:36:09;;;;;;;2.78;1.60;;;30.40;60.20;;;;;;5097274;28;20131;-72
2021/07/13 08:38:34;;;;;;;3.38;1.45;;;30.60;60.70;;;;;;5097088;28;20123;-72
2021/07/13 08:41:01;;;;;;;6.00;2.13;;;30.90;58.50;;;;;;5097411;28;20055;-72
2021/07/13 08:43:27;;;;;;;4.13;1.70;;;31.20;61.20;;;;;;5097300;28;20028;-72
2021/07/13 08:45:54;;;;;;;3.13;1.55;;;31.50;59.30;;;;;;5097437;28;20032;-72
2021/07/13 08:48:24;;;;;;;4.80;1.52;;;31.60;57.30;;;;;;5097303;28;20052;-72
2021/07/13 08:51:01;;;;;;;4.35;1.55;;;31.90;57.50;;;;;;5097187;28;20098;-72
2021/07/13 08:53:29;;;;;;;4.20;1.38;;;32.00;57.20;;;;;;5096770;28;20119;-72
2021/07/13 08:55:55;;;;;;;6.75;1.70;;;31.70;57.80;;;;;;5097017;28;20030;-72
2021/07/13 08:58:22;;;;;;;2.55;1.58;;;31.30;58.40;;;;;;5097281;28;20124;-72
2021/07/13 09:00:49;;;;;;;4.15;1.80;;;31.30;58.10;;;;;;5096921;28;20016;-72
2021/07/13 09:03:19;;;;;;;2.35;1.65;;;31.30;57.50;;;;;;5096861;28;20028;-72
2021/07/13 09:05:53;;;;;;;4.80;1.83;;;31.80;57.50;;;;;;5097176;28;20028;-72
2021/07/13 09:08:23;;;;;;;4.35;1.52;;;31.80;56.40;;;;;;5097185;28;20088;-72
2021/07/13 09:11:13;;;;;;;6.15;1.77;;;31.30;57.40;;;;;;5097130;28;20020;-72
2021/07/13 09:13:48;;;;;;;3.60;1.60;;;31.10;58.40;;;;;;5097000;28;20028;-71
2021/07/13 09:16:24;;;;;;;5.28;1.63;;;31.40;57.40;;;;;;5096695;28;20099;-72
2021/07/13 09:18:52;;;;;;;3.67;1.60;;;31.50;57.30;;;;;;5097061;28;20320;-72
2021/07/13 09:21:25;;;;;;;4.22;1.70;;;31.50;58.50;;;;;;5096658;28;20028;-72
2021/07/13 09:24:17;;;;;;;2.80;1.92;;;31.10;57.80;;;;;;5096657;28;20035;-72
2021/07/13 09:26:42;;;;;;;2.53;1.40;;;30.70;58.90;;;;;;5096669;28;20479;-72
2021/07/13 09:29:30;;;;;;;2.55;1.65;;;30.70;61.30;;;;;;5096931;28;20036;-71
2021/07/13 09:32:15;;;;;;;4.60;1.83;;;31.10;61.50;;;;;;5089752;28;20412;-72
2021/07/13 09:34:50;;;;;;;4.47;1.70;;;31.60;57.50;;;;;;5096565;28;20024;-71
2021/07/13 09:37:22;;;;;;;2.80;1.58;;;32.10;58.20;;;;;;5096467;28;20119;-71
2021/07/13 09:39:59;;;;;;;7.32;1.70;;;32.30;61.60;;;;;;5096818;28;20024;-70
2021/07/13 09:42:26;;;;;;;5.38;2.05;;;32.00;56.90;;;;;;5096326;28;20035;-70
2021/07/13 09:44:53;;;;;;;3.22;1.60;;;31.00;58.60;;;;;;5097015;28;20455;-70
2021/07/13 09:47:29;;;;;;;3.55;2.10;;;30.60;59.70;;;;;;5096372;28;20093;-70
2021/07/13 09:49:55;;;;;;;4.82;1.75;;;30.30;60.80;;;;;;5096429;28;20490;-71
2021/07/13 09:52:25;;;;;;;5.75;1.85;;;30.10;60.40;;;;;;5096317;28;20039;-71
2021/07/13 09:54:52;;;;;;;3.95;1.85;;;29.70;62.10;;;;;;5096727;28;20315;-71
2021/07/13 09:57:20;;;;;;;4.00;2.10;;;29.50;62.50;;;;;;5096652;28;20107;-71
2021/07/13 09:59:48;;;;;;;2.28;1.50;;;29.50;63.40;;;;;;5096647;28;20298;-71
2021/07/13 10:02:18;;;;;;;3.78;1.75;;;29.40;63.70;;;;;;5096631;28;20031;-71
2021/07/13 10:04:46;;;;;;;3.08;1.40;;;29.50;67.40;;;;;;5100122;28;20047;-71
2021/07/13 10:07:17;;;;;;;3.53;1.95;;;29.70;62.10;;;;;;5100142;28;20036;-71
2021/07/13 10:09:49;;;;;;;5.22;1.50;;;29.70;61.40;;;;;;5100398;28;20031;-71
2021/07/13 10:12:17;;;;;;;2.13;1.50;;;29.70;60.60;;;;;;5099976;28;20404;-71
2021/07/13 10:14:45;;;;;;;3.88;1.45;;;29.70;58.20;;;;;;5100410;28;20106;-71
2021/07/13 10:17:13;;;;;;;4.95;1.77;;;29.60;62.10;;;;;;5099303;28;20043;-71
2021/07/13 10:19:48;;;;;;;4.18;1.90;;;29.40;59.30;;;;;;5104095;28;20020;-71
2021/07/13 10:22:15;;;;;;;2.33;1.67;;;29.10;63.20;;;;;;5116235;28;20039;-71
2021/07/13 10:24:44;;;;;;;6.78;1.58;;;29.20;64.00;;;;;;5120540;28;20089;-71
2021/07/13 10:27:27;;;;;;;6.80;1.70;;;29.20;61.70;;;;;;5120078;28;20027;-71
2021/07/13 10:29:53;;;;;;;7.18;1.65;;;29.40;58.60;;;;;;5120465;28;20023;-71
2021/07/13 10:32:18;;;;;;;8.13;1.73;;;29.20;62.80;;;;;;5120305;28;20023;-71
2021/07/13 10:34:53;;;;;;;3.63;1.90;;;29.00;59.50;;;;;;5119985;28;20315;-71
2021/07/13 10:37:25;;;;;;;1.55;1.27;;;28.80;63.00;;;;;;5119803;28;20052;-71
2021/07/13 10:39:54;;;;;;;7.05;2.00;;;28.60;63.30;;;;;;5120244;28;20046;-70
2021/07/13 10:42:41;;;;;;;2.92;1.60;;;28.40;63.90;;;;;;5119881;28;20048;-71
2021/07/13 10:45:16;;;;;;;2.72;1.95;;;28.40;63.90;;;;;;5119832;28;20438;-71
2021/07/13 10:47:57;;;;;;;3.95;1.90;;;28.40;65.10;;;;;;5119836;28;20035;-71
2021/07/13 10:50:23;;;;;;;2.80;1.55;;;28.70;64.50;;;;;;5106086;28;20150;-71
2021/07/13 10:52:57;;;;;;;3.83;1.70;;;29.40;61.60;;;;;;5119405;28;20049;-71
2021/07/13 10:55:32;;;;;;;3.93;1.70;;;29.50;61.60;;;;;;5101634;28;20088;-71
2021/07/13 10:58:10;;;;;;;4.45;2.22;;;29.70;62.70;;;;;;5120225;28;20252;-71
2021/07/13 11:00:44;;;;;;;3.13;1.70;;;30.00;64.50;;;;;;5119885;28;20028;-71
2021/07/13 11:03:30;;;;;;;4.35;1.95;;;30.20;60.10;;;;;;5119511;28;20039;-71
2021/07/13 11:06:03;;;;;;;5.18;1.83;;;30.60;59.90;;;;;;5119324;28;20327;-71
2021/07/13 11:08:41;;;;;;;5.15;1.73;;;30.90;59.10;;;;;;5119745;28;20315;-70
2021/07/13 11:11:18;;;;;;;4.85;1.70;;;31.20;59.00;;;;;;5119671;28;20036;-71
2021/07/13 11:13:52;;;;;;;3.63;1.52;;;31.30;58.10;;;;;;5119631;28;20060;-71
2021/07/13 11:16:23;;;;;;;8.30;1.80;;;31.40;57.80;;;;;;5118325;28;20036;-71
2021/07/13 11:18:49;;;;;;;4.20;2.42;;;31.40;57.50;;;;;;5119213;28;20426;-71
2021/07/13 11:21:31;;;;;;;4.35;1.90;;;31.50;60.10;;;;;;5119484;28;20015;-71
2021/07/13 11:23:59;;;;;;;4.45;1.70;;;31.50;60.00;;;;;;5119092;28;20106;-71
2021/07/13 11:26:27;;;;;;;6.35;1.73;;;31.40;59.90;;;;;;5119240;28;20361;-71
2021/07/13 11:28:55;;;;;;;3.17;1.70;;;31.20;60.30;;;;;;5118958;28;20416;-71
2021/07/13 11:31:29;;;;;;;5.15;2.10;;;31.10;61.40;;;;;;5119222;28;20020;-71
2021/07/13 11:34:02;;;;;;;10.23;1.90;;;30.40;60.60;;;;;;5118985;28;20027;-71
2021/07/13 11:36:39;;;;;;;5.22;1.80;;;30.00;61.80;;;;;;5119168;28;20327;-71
2021/07/13 11:39:08;;;;;;;4.40;1.73;;;29.70;63.30;;;;;;5118741;28;20040;-71
2021/07/13 11:41:34;;;;;;;4.15;2.15;;;29.50;63.70;;;;;;5119089;28;20032;-71
2021/07/13 11:44:05;;;;;;;7.70;2.42;;;29.20;65.70;;;;;;5119088;28;20285;-71
2021/07/13 11:46:36;;;;;;;6.93;2.00;;;29.20;64.80;;;;;;5118959;28;20031;-71
2021/07/13 11:49:10;;;;;;;5.07;2.20;;;29.10;61.50;;;;;;5118966;28;20023;-71
2021/07/13 11:51:56;;;;;;;2.70;1.70;;;28.90;64.20;;;;;;5118846;28;20039;-71
2021/07/13 11:54:26;;;;;;;6.60;2.40;;;28.70;60.90;;;;;;5118829;28;20027;-70
2021/07/13 11:56:54;;;;;;;10.23;2.08;;;28.80;67.40;;;;;;5118427;28;20023;-70
2021/07/13 11:59:22;;;;;;;6.95;1.85;;;28.80;62.50;;;;;;5118709;28;20311;-70
2021/07/13 12:01:54;;;;;;;3.53;1.90;;;28.50;64.40;;;;;;5118322;28;20497;-70
2021/07/13 12:04:21;;;;;;;2.85;1.80;;;28.30;64.30;;;;;;5118337;28;20027;-70
2021/07/13 12:06:58;;;;;;;3.45;1.83;;;28.10;64.10;;;;;;5118216;28;20076;-70
2021/07/13 12:09:29;;;;;;;5.60;1.90;;;27.90;66.10;;;;;;5118252;28;20362;-70
2021/07/13 12:12:13;;;;;;;4.50;1.80;;;27.50;62.80;;;;;;5118441;28;20031;-70
2021/07/13 12:14:41;;;;;;;2.92;2.25;;;27.30;64.80;;;;;;5118566;28;20107;-70
2021/07/13 12:17:07;;;;;;;5.05;1.80;;;27.20;66.60;;;;;;5118017;28;20027;-70
2021/07/13 12:19:39;;;;;;;4.30;2.17;;;26.90;68.20;;;;;;5117491;28;20319;-70
2021/07/13 12:22:10;;;;;;;5.38;2.13;;;26.80;67.60;;;;;;5118201;28;20095;-70
2021/07/13 12:24:38;;;;;;;6.68;2.33;;;26.60;66.50;;;;;;5118235;28;20320;-70
2021/07/13 12:27:06;;;;;;;5.53;2.00;;;26.30;69.10;;;;;;5117644;28;20106;-70
2021/07/13 12:29:43;;;;;;;3.95;2.00;;;26.10;69.40;;;;;;5118099;28;20030;-70
2021/07/13 12:32:18;;;;;;;5.28;2.00;;;25.80;69.60;;;;;;5117689;28;20034;-70
2021/07/13 12:34:45;;;;;;;7.47;2.13;;;25.80;69.50;;;;;;5118043;28;20024;-70
2021/07/13 12:37:14;;;;;;;5.07;2.13;;;25.70;69.30;;;;;;5117482;28;20019;-71
2021/07/13 12:39:59;;;;;;;8.13;2.70;;;25.70;70.40;;;;;;5117709;28;20031;-70
2021/07/13 12:42:29;;;;;;;6.85;2.63;;;25.50;69.30;;;;;;5103299;28;20066;-71
2021/07/13 12:45:09;;;;;;;8.93;2.90;;;25.40;69.00;;;;;;5118129;28;20058;-70
2021/07/13 12:47:38;;;;;;;6.63;2.50;;;25.40;70.00;;;;;;5117591;28;20046;-70
2021/07/13 12:50:17;;;;;;;7.05;2.10;;;25.30;68.90;;;;;;5117797;28;20084;-70
2021/07/13 12:52:42;;;;;;;3.67;1.90;;;25.30;70.60;;;;;;5117376;28;20111;-70
2021/07/13 12:55:27;;;;;;;4.88;2.30;;;25.30;70.40;;;;;;5117384;28;20051;-70
2021/07/13 12:57:53;;;;;;;10.05;3.00;;;25.10;70.80;;;;;;5117438;28;20031;-70